Alexandre Rolland

Chefscout - RC Lens
5 Sep 2027
Sonntag
Verarbeitung

Persönlichkeit

Anpassungsfähigkeit (11) Ehrgeiz (20) Kontroverse (4) Loyalität (9) Druck (7) Professionalität (4) Fairness (1) Temperament (4)

Profil

Trainerstil Demokratisch
Lizenz Kontinentale B
Entschlossenheit 8
Menschenführung 14
Motivation 11
Disziplin 13
Arbeitszufriedenheit
100%
Ermüdung
0%
Rolle Chefscout
Gehalt 75.4K p/W
Vertrag 14.03.2029

Leistung

Verhalten Gut
Trainingseffektivität
61%
Spielerentwicklung
35%
Verletzungsprävention
25%
Taktische Umsetzung
70%

Letzte Ereignisse

Spieler begutachtet jetzt
Nahm an einer Scouting-Besprechung teil jetzt
Spieler begutachtet 7T her
Spieler begutachtet 7T her
Nahm an einer Scouting-Besprechung teil 7T her
Empfahl ein Transferziel 7T her
Spieler begutachtet 7T her
Spieler begutachtet 7T her

Aktuell beobachtet

197
Spieler Verein Status Fähigkeit Vertrauen Beobachtet Zuletzt beobachtet Letzte Stimme
Dramane Kamagaté USM Alger Aktiv 110 / 114 40% 1 30.08.2027 -
Renzo Machado Liverpool Montevideo Aktiv 108 / 124 40% 1 30.08.2027 -
Matheus Nascimento San Jose Earthquakes Verloren 125 / 138 40% 1 30.08.2027 -
Agustín Medina River Plate Aktiv 119 / 125 40% 2 26.08.2027 -
Lucas Pyziak Vélez Aktiv 102 / 115 40% 1 26.08.2027 -
Noel Sernelius IFK Norrkoping Aktiv 107 / 112 40% 1 26.08.2027 -
Khalid Rashid Al Ahli Aktiv 144 / 131 40% 2 24.08.2027 -
Elias Achouri San Diego Football Club Aktiv 137 / 118 40% 2 24.08.2027 -
Erick Sánchez Botafogo Aktiv 140 / 146 40% 1 24.08.2027 -
Mathys Angély VfL Wolfsburg Aktiv 111 / 130 40% 2 23.08.2027 -
Exequiel Zeballos Boca Juniors Aktiv 134 / 145 40% 2 23.08.2027 -
Agustín Obregón River Plate Aktiv 111 / 119 40% 1 23.08.2027 -
Josué Kongolo Westerlo Aktiv 114 / 119 40% 1 23.08.2027 -
Erison Kawasaki Frontale Aktiv 139 / 124 40% 1 23.08.2027 -
Matías Palacios Al Ain Aktiv 135 / 156 40% 1 23.08.2027 -
Mateo Silvetti Inter Miami CF Aktiv 129 / 118 40% 1 23.08.2027 -
Exequiel Mereles Nacional Aktiv 107 / 104 40% 1 23.08.2027 -
Jens Petter Hauge Bodo/Glimt Aktiv 147 / 136 40% 5 21.08.2027 -
Serginho Al Wasl Aktiv 129 / 136 40% 1 21.08.2027 -
Benjamín Rollheiser Santos Aktiv 138 / 130 40% 1 21.08.2027 -
Nikola Vlašić Torino Aktiv 154 / 152 40% 2 20.08.2027 -
Morten Frendrup Genoa Aktiv 143 / 144 40% 1 20.08.2027 -
Matteo Cancellieri Lazio Aktiv 150 / 150 40% 1 20.08.2027 -
Assane Diao Como Aktiv 149 / 148 40% 2 19.08.2027 -
Christ Inao Oulaï Fiorentina Aktiv 139 / 154 40% 1 19.08.2027 -
Nahuel Leivas Montevideo City Torque Aktiv 101 / 104 40% 1 19.08.2027 -
Didier Dawson Envigado Aktiv 103 / 108 40% 1 19.08.2027 -
Nicolò Zaniolo Udinese Aktiv 150 / 137 40% 1 19.08.2027 -
Nadir Zortea Bologna Aktiv 140 / 139 40% 1 19.08.2027 -
David Neres Napoli Aktiv 160 / 168 40% 1 18.08.2027 -
Aarón Genoa Aktiv 137 / 144 40% 1 18.08.2027 -
Giacomo Raspadori Atalanta Aktiv 152 / 158 40% 1 18.08.2027 -
Boubacar Fofana Sochaux Aktiv 120 / 110 83% 1 16.08.2027 Befürworten
Mattia Rutigliano Pro Vercelli Aktiv 105 / 110 40% 1 16.08.2027 -
Manu Rodríguez Gijón Aktiv 105 / 120 40% 1 16.08.2027 -
Shuto Nakano Sanfrecce Hiroshima Aktiv 140 / 149 40% 2 14.08.2027 -
Matteo Pessina Monza Aktiv 137 / 127 40% 3 14.08.2027 -
Genesis Antwi Chelsea Aktiv 112 / 117 40% 2 14.08.2027 -
Panagiotis Kattirtzis APOEL Aktiv 98 / 107 40% 1 14.08.2027 -
Nacim Dendani Utrecht Aktiv 105 / 102 40% 1 14.08.2027 -
Iván Martín Racing Club Aktiv 145 / 144 40% 1 12.08.2027 -
Gérson Cruzeiro Aktiv 143 / 135 40% 1 12.08.2027 -
Lucas Piton Vasco da Gama Aktiv 137 / 125 40% 2 11.08.2027 -
Caio Alexandre Bahia Aktiv 140 / 129 40% 2 11.08.2027 -
Alan Lescano Argentinos Juniors Aktiv 136 / 127 40% 3 11.08.2027 -
Ângelo Al-Nassr Aktiv 133 / 135 40% 4 10.08.2027 -
Ciro Armoa Rosario Central Aktiv 97 / 95 40% 1 10.08.2027 -
Rio Cardines Crystal Palace Aktiv 104 / 112 40% 1 10.08.2027 -
Christian Comotto AC Milan Aktiv 123 / 126 40% 1 10.08.2027 -
Diego León Manchester United Aktiv 116 / 131 40% 1 09.08.2027 -
Lakyle Samuel Manchester City Aktiv 102 / 100 40% 1 09.08.2027 -
Sorriso Famalicao Aktiv 133 / 142 40% 5 08.08.2027 -
Enzo Tacafred AS Nancy Aktiv 100 / 107 40% 1 08.08.2027 -
Kieran Morrison Liverpool Aktiv 105 / 111 40% 1 08.08.2027 -
Salih Özcan Besiktas Aktiv 138 / 138 40% 2 06.08.2027 -
Mathias De Amorim Famalicao Aktiv 134 / 142 40% 1 06.08.2027 -
Gustavo Hamer Sheffield United Aktiv 140 / 127 40% 1 06.08.2027 -
Mohamadou Kanté West Ham United Aktiv 120 / 138 40% 1 06.08.2027 -
Sebastian Lodberg Pergolettese Aktiv 99 / 104 40% 1 06.08.2027 -
Haissem Hassan Corinthians Aktiv 135 / 137 40% 2 04.08.2027 -
Jaime Seoane Al-Faisaly Aktiv 141 / 141 40% 4 03.08.2027 -
Bart van Rooij Twente Aktiv 139 / 142 40% 3 02.08.2027 -
Hirokazu Ishihara FC Tokyo Aktiv 132 / 141 40% 1 02.08.2027 -
Luis Palacios Tigres Aktiv 102 / 111 40% 1 02.08.2027 -
Gaku Nawata Gamba Osaka Aktiv 116 / 131 40% 1 02.08.2027 -
Toma Bašić Venezia Aktiv 136 / 135 40% 5 01.08.2027 -
Mattéo Tramoni Pisa Aktiv 135 / 141 40% 2 01.08.2027 -
Lucio Cruceño Godoy Cruz Aktiv 97 / 104 40% 1 01.08.2027 -
Noham Kamara Olympique Lyonnais Aktiv 113 / 116 40% 1 01.08.2027 -
Davide Calabria Panathinaikos Aktiv 148 / 136 40% 5 30.07.2027 -
Diogo Gonçalves Konyaspor Aktiv 139 / 122 40% 2 30.07.2027 -
Domagoj Bradarić Hellas Verona Aktiv 136 / 146 40% 2 29.07.2027 -
Kiril Despodov PAOK Aktiv 135 / 124 40% 1 29.07.2027 -
Sota Nakamura Sanfrecce Hiroshima Aktiv 130 / 144 40% 1 29.07.2027 -
Myron van Brederode KV Mechelen Aktiv 127 / 131 40% 1 29.07.2027 -
Ismeal Kabia Arsenal Aktiv 106 / 108 40% 1 28.07.2027 -
Tidiam Gomis RB Leipzig Aktiv 127 / 120 40% 1 28.07.2027 -
Marcus Holmgren Pedersen Olympiacos Aktiv 135 / 140 40% 2 27.07.2027 -
Marwan Ateya Al Ahly Aktiv 141 / 151 40% 1 27.07.2027 -
Augusto Bando Ascoli Aktiv 103 / 111 40% 1 27.07.2027 -
Kaick FC Dallas Aktiv 107 / 111 40% 1 27.07.2027 -
George Abbott Tottenham Aktiv 117 / 120 40% 1 27.07.2027 -
David Da Costa Portland Timbers Aktiv 136 / 146 40% 3 26.07.2027 -
Christopher Opéri Basaksehir Aktiv 139 / 140 40% 1 26.07.2027 -
Jakub Piotrowski Udinese Aktiv 134 / 139 40% 1 26.07.2027 -
Saïmon Bouabré Al-Hilal Aktiv 131 / 145 40% 1 26.07.2027 -
Ashton Muir Manchester City Aktiv 104 / 108 40% 1 26.07.2027 -
Luca Raffaelli Instituto Aktiv 102 / 111 40% 1 26.07.2027 -
Martim Cunha Porto Aktiv 103 / 106 40% 2 25.07.2027 -
Christian Kouamé Aris Thessaloniki Aktiv 139 / 149 40% 3 25.07.2027 -
Edoardo Bove Watford Aktiv 135 / 134 40% 1 25.07.2027 -
Gustavo Albarracín Alavés Aktiv 110 / 114 40% 1 25.07.2027 -
Yota Komi Kashiwa Reysol Aktiv 120 / 113 40% 1 25.07.2027 -
Yehor Hunichev Feniks Aktiv 94 / 82 40% 1 25.07.2027 -
Rocco Vata Watford Aktiv 128 / 127 40% 1 25.07.2027 -
Pablo Maffeo Olympiacos Aktiv 144 / 147 40% 2 22.07.2027 -
Oleksandr Zubkov AEK Aktiv 137 / 143 40% 5 22.07.2027 -
Pedrinho Shakhtar Aktiv 139 / 121 40% 2 21.07.2027 -
Rúben Neves Al-Hilal Aktiv 148 / 162 40% 4 20.07.2027 -
Christos Zafeiris PAOK Aktiv 140 / 143 40% 2 19.07.2027 -
Djibril Sow Genoa Aktiv 143 / 146 40% 2 19.07.2027 -
Emam Ashour Al Ahly Aktiv 135 / 130 40% 4 19.07.2027 -
Oleh Ocheretko Shakhtar Aktiv 135 / 138 40% 1 18.07.2027 -
Zakaria El Ouahdi Racing Genk Aktiv 133 / 126 40% 1 17.07.2027 -
Pedro Henrique Shakhtar Aktiv 139 / 134 40% 4 16.07.2027 -
Zakaria Aboukhlal Torino Aktiv 141 / 131 40% 2 15.07.2027 -
Issa Soumaré Stade Rennais Aktiv 138 / 127 40% 1 14.07.2027 -
Antonino Gallo Lecce Aktiv 141 / 132 40% 2 11.07.2027 -
Wendel Zenit Aktiv 148 / 154 40% 2 10.07.2027 -
Jhon Jhon Zenit Aktiv 135 / 146 40% 3 10.07.2027 -
Andy Irving Sparta Prague Aktiv 132 / 145 40% 2 07.07.2027 -
Evander FC Cincinnati Aktiv 135 / 150 40% 1 06.07.2027 -
Frank Onyeka Coventry City Aktiv 136 / 145 40% 1 06.07.2027 -
Rafik el Arguioui Utrecht Aktiv 107 / 128 40% 1 06.07.2027 -
Bruno Alves Cruzeiro Aktiv 108 / 110 40% 1 06.07.2027 -
Louis Page West Ham United Aktiv 123 / 134 40% 1 04.07.2027 -
Yusuf Akçiçek Al-Hilal Aktiv 129 / 119 40% 1 04.07.2027 -
Alexis Vossah Stade Brestois Aktiv 118 / 130 40% 1 04.07.2027 -
Bahia Santos Aktiv 112 / 115 40% 1 03.07.2027 -
Duvan Giraldo Cortulua Aktiv 135 / 135 40% 1 03.07.2027 -
Juan Manuel Villalba Estudiantes Aktiv 113 / 118 40% 1 02.07.2027 -
Yoni Gomis RC Strasbourg Aktiv 107 / 125 40% 1 02.07.2027 -
Lovro Golič KV Mechelen Aktiv 103 / 114 40% 1 02.07.2027 -
Houssem Aouar Al-Ittihad Aktiv 145 / 149 40% 2 29.06.2027 -
Sebastián Marfort Racing Aktiv 102 / 114 40% 1 28.06.2027 -
Teboho Mokoena Mamelodi Sundowns Aktiv 140 / 129 40% 1 27.06.2027 -
Felipe Loyola Pisa Aktiv 136 / 131 40% 1 27.06.2027 -
Khaled Al-Nabris Ismaily Aktiv 91 / 110 40% 1 26.06.2027 -
Rody Junior Effaghe Aris Aktiv 103 / 103 40% 1 26.06.2027 -
Midana Cassamá Portimonense Aktiv 110 / 105 40% 1 26.06.2027 -
Hamdan Abdulrahman Al Shabab Aktiv 144 / 137 40% 3 24.06.2027 -
Rodrigo Huescas FC Copenhagen Aktiv 134 / 152 40% 1 20.06.2027 -
Tatsuya Ito Kawasaki Frontale Aktiv 138 / 145 40% 1 20.06.2027 -
Isaac Tshibangu Emirates Club Aktiv 105 / 114 40% 1 19.06.2027 -
Bertuğ Yıldırım Basaksehir Aktiv 132 / 132 40% 1 19.06.2027 -
Eguinaldo Shakhtar Aktiv 135 / 120 40% 1 19.06.2027 -
Facundo Pellistri Panathinaikos Aktiv 130 / 141 40% 1 19.06.2027 -
Lukáš Provod Slavia Prague Aktiv 151 / 136 40% 4 18.06.2027 -
Milot Rashica Besiktas Aktiv 137 / 128 40% 7 16.06.2027 -
Ryan Yates Nottingham Forest Aktiv 138 / 129 40% 4 14.06.2027 -
Joseph Muller Chamois Niortais Verloren 117 / 121 83% 1 14.06.2027 Befürworten
Tiago Palacios Estudiantes Aktiv 136 / 137 40% 1 13.06.2027 -
Máximo Perrone Como Aktiv 143 / 138 40% 2 12.06.2027 -
Musa Al-Tamari Stade Rennais Aktiv 129 / 128 40% 1 12.06.2027 -
Joris Chotard Stade Brestois Aktiv 137 / 137 40% 1 11.06.2027 -
Lovro Majer AEK Abgelehnt 145 / 157 40% 2 09.06.2027 Mehr Infos nötig
David Douděra Slavia Prague Aktiv 132 / 132 40% 1 08.06.2027 -
Maurits Kjærgaard Red Bull Salzburg Aktiv 133 / 146 40% 1 08.06.2027 -
Hamari Traoré Paris FC Verloren 127 / 131 83% 1 07.06.2027 Befürworten
Nicolás de la Cruz Flamengo Aktiv 134 / 130 40% 1 06.06.2027 -
Marlon Gomes Shakhtar Aktiv 140 / 153 40% 2 04.06.2027 -
Christian Krasnodar Aktiv 132 / 125 40% 1 04.06.2027 -
Jonathan Bamba Chicago Fire Aktiv 128 / 137 40% 3 31.01.2027 -
Sergio Reguilón Club America Aktiv 133 / 126 40% 2 31.01.2027 -
Gustavo Mantuan Zenit Abgelehnt 127 / 142 40% 2 31.01.2027 Mehr Infos nötig
Kota Tawaratsumida FC Tokyo Abgelehnt 132 / 133 40% 3 30.01.2027 Ablehnen
Dedryck De Ketelaere KV Oostende Abgelehnt 135 / 145 40% 2 30.01.2027 Mehr Infos nötig
Idrissa Touré Monza Abgelehnt 140 / 142 40% 1 30.01.2027 Mehr Infos nötig
Orbelín Pineda Monterrey Aktiv 137 / 128 40% 2 27.01.2027 -
Diego Rossi Monterrey Aktiv 138 / 118 40% 2 27.01.2027 -
Jefferson Savarino Fluminense Aktiv 134 / 141 40% 1 26.01.2027 -
Patrick Berg Bodo/Glimt Aktiv 139 / 127 40% 2 25.01.2027 -
Pablo Rosario Porto Aktiv 137 / 129 40% 2 24.01.2027 -
Yacine Adli Al-Shabab Aktiv 133 / 135 40% 3 22.01.2027 -
Yuma Suzuki Kashima Antlers Aktiv 134 / 144 40% 2 15.01.2027 -
Lukáš Haraslín Al-Fateh Aktiv 143 / 137 40% 1 15.01.2027 -
Rasmus Kristensen FC Midtjylland Aktiv 149 / 127 40% 3 14.01.2027 -
Philip Billing FC Midtjylland Aktiv 141 / 127 40% 3 10.01.2027 -
Luca Orellano Monterrey Aktiv 143 / 146 40% 1 08.01.2027 -
Richard Ledezma Guadalajara Aktiv 127 / 142 40% 1 07.01.2027 -
Jesús Angulo Tigres Aktiv 137 / 134 40% 1 07.01.2027 -
Amir Murillo Besiktas Aktiv 139 / 131 40% 2 02.01.2027 -
Daniel Muñoz Racing Genk Abgelehnt 146 / 140 40% 4 31.08.2026 Ablehnen
Dani Ceballos Olympique de Marseille Aktiv 146 / 140 40% 3 28.08.2026 -
Esequiel Barco Spartak Moscow Aktiv 133 / 121 40% 1 28.08.2026 -
Jean-Victor Makengo FC Lorient Abgelehnt 129 / 113 79% 1 24.08.2026 Ablehnen
Sofyan Amrabat Ajax Aktiv 139 / 138 40% 1 24.08.2026 -
Alexey Miranchuk Atlanta United FC Aktiv 139 / 135 40% 1 24.08.2026 -
Oussama Targhalline Feyenoord Aktiv 131 / 148 40% 1 24.08.2026 -
Carlos Rodríguez Cruz Azul Aktiv 133 / 145 40% 2 23.08.2026 -
Malick Fofana Olympique Lyonnais Aktiv 134 / 151 40% 2 22.08.2026 -
Lucas Torreira Galatasaray Aktiv 144 / 152 40% 3 17.08.2026 -
Igor Silva FC Lorient Abgelehnt 115 / 130 79% 1 17.08.2026 Ablehnen
Gedson Fernandes Spartak Moscow Aktiv 142 / 150 40% 1 16.08.2026 -
Pau Víctor Braga Aktiv 131 / 127 40% 1 15.08.2026 -
Crysencio Summerville Al-Hilal Aktiv 143 / 122 40% 1 14.08.2026 -
Valentino Lazaro Al Ain Aktiv 129 / 146 40% 1 12.08.2026 -
Leon Bailey Aston Villa Aktiv 145 / 141 40% 1 07.08.2026 -
Romain Del Castillo Stade Brestois Aktiv 133 / 144 40% 1 07.08.2026 -
Alexander Bah Benfica Aktiv 138 / 125 40% 1 06.08.2026 -
Alberto Costa Porto Aktiv 140 / 137 40% 1 06.08.2026 -
Tanner Tessmann Olympique Lyonnais Aktiv 141 / 144 40% 1 06.08.2026 -
Galeno Al-Ahli Aktiv 151 / 142 40% 1 05.08.2026 -
Leroy Sané Galatasaray Aktiv 161 / 171 40% 1 05.08.2026 -
Jean-Baptiste Simon Tours Abgelehnt 151 / 148 40% 1 01.08.2026 Mehr Infos nötig
Saša Lukić Ipswich Town Aktiv 137 / 150 40% 1 01.08.2026 -
Omar El Hilali Espanyol Aktiv 143 / 152 40% 1 01.08.2026 -